Airfield :
LOGIN :

Register | Disclaimer

   EN    FR    IT 

 










Legend :    VFR   Marginal VFR   IFR   Intensive IFR   Very Intensive IFR
Visi :
Ceiling :
>= 8 km
>= 3000ft
5 to 8 km
1000 to 3000 ft
1500m to 5 km
500 to 1000 ft
800 to 1500m
200 to 500 ft
< 800m
< 200 ft
Symbols :   Thunderstorms  Fog  Heavy snow  Heavy precipitations  Wind > 20 kt
SIGMETs :     Misc.  Thunderstorms  Icing  Turbulence  Mountain Waves  Volcanic Ashes






- Airport Elevation : 502 ft
- IATA code : ORK


EICK - Cork

CURRENT METAR :
  • 052230Z 14007KT 9999 BKN009 07/06 Q1041 NOSIG

EXPIRED METARs :
  • 052130Z 12006KT 9999 BKN011 07/05 Q1041 NOSIG
  • 052100Z 12007KT 9999 BKN012 07/05 Q1042 NOSIG
  • 052030Z 14006KT 9999 BKN013 07/05 Q1042 NOSIG
  • 052000Z 14006KT 9999 BKN013 07/05 Q1042 NOSIG

TAF TAF EICK
Valid from the 05 at 18:00 until the 06 at 18:00 UTC


051700Z 0518/0618 15008KT 9999 BKN012
BECMG 0519/0521 BKN009
TEMPO 0521/0604 3000 -RA BR BKN004
PROB40
TEMPO 0523/0604 0800 FG BKN001
BECMG 0600/0602 18010KT
BECMG 0602/0604 SCT005 BKN015
TEMPO 0604/0609 BKN005
PROB30
TEMPO 0610/0615 18015G25KT



MET'MAP, your aeronautical weather chart ! - Copyright ORBIFLY December 2007 - Disclaimer

ORBIFLY MET'MAP TEAM :

Programming & Development : Alexandra Zaïnal
Original concept : Baudouin d'Aumeries
Technical & hardware support : Manuel Goepfert
Assistance : Marc-Olivier Méhu




SOURCES & CREDITS :

   NOAA